Time;durP1;ratioP1;P1;durP2;ratioP2;P2;SDS_P1;SDS_P2;PMS_P1;PMS_P2;Temp;Humidity;BMP_temperature;BMP_pressure;BME280_temperature;BME280_humidity;BME280_pressure;Samples;Min_cycle;Max_cycle;Signal;HPM_P1;HPM_P2
2022/10/12 00:04:03;;;;;;;;;;;16.70;99.90;;;;;;5021710;28;19921;-87
2022/10/12 00:06:28;;;;;;;;;;;16.70;99.90;;;;;;5058152;28;20008;-86
2022/10/12 00:08:54;;;;;;;;;;;16.70;99.90;;;;;;5050924;28;20031;-85
2022/10/12 00:11:41;;;;;;;;;;;16.80;99.90;;;;;;5073172;28;20009;-86
2022/10/12 00:14:06;;;;;;;;;;;16.80;99.90;;;;;;5073498;28;19923;-85
2022/10/12 00:16:33;;;;;;;;;;;16.80;99.90;;;;;;5071687;28;19920;-85
2022/10/12 00:18:59;;;;;;;;;;;16.70;99.90;;;;;;5073444;28;19924;-86
2022/10/12 00:21:25;;;;;;;;;;;16.70;99.90;;;;;;5080401;28;20307;-87
2022/10/12 00:23:51;;;;;;;;;;;16.70;99.90;;;;;;5080341;28;19916;-86
2022/10/12 00:26:21;;;;;;;;;;;16.70;99.90;;;;;;5071315;28;19920;-87
2022/10/12 00:28:47;;;;;;;;;;;16.70;99.90;;;;;;5076066;28;19973;-86
2022/10/12 00:31:14;;;;;;;;;;;16.60;99.90;;;;;;5077200;28;19979;-87
2022/10/12 00:33:40;;;;;;;;;;;16.70;99.90;;;;;;5071841;28;19944;-87
2022/10/12 00:36:20;;;;;;;;;;;16.60;99.90;;;;;;5077077;28;19922;-87
2022/10/12 00:38:48;;;;;;;;;;;16.60;99.90;;;;;;5075365;28;19999;-86
2022/10/12 00:41:14;;;;;;;;;;;16.60;99.90;;;;;;5074858;28;20746;-87
2022/10/12 00:43:41;;;;;;;;;;;16.60;99.90;;;;;;5084457;28;20059;-87
2022/10/12 00:46:20;;;;;;;;;;;16.60;99.90;;;;;;5081316;28;19916;-87
2022/10/12 00:48:49;;;;;;;;;;;16.60;99.90;;;;;;5085176;28;19920;-88
2022/10/12 00:51:15;;;;;;;;;;;16.50;99.90;;;;;;5077698;28;20370;-88
2022/10/12 00:53:49;;;;;;;;;;;16.50;99.90;;;;;;5072162;28;20372;-87
2022/10/12 00:56:19;;;;;;;;;;;16.50;99.90;;;;;;5083759;28;19958;-87
2022/10/12 00:58:46;;;;;;;;;;;16.50;99.90;;;;;;5075350;28;19916;-87
2022/10/12 01:01:14;;;;;;;;;;;16.50;99.90;;;;;;5074979;28;19916;-87
2022/10/12 01:03:39;;;;;;;;;;;16.40;99.90;;;;;;5074121;28;20438;-88
2022/10/12 01:09:41;;;;;;;;;;;;;;;;;;;;;
2022/10/12 01:12:03;;;;;;;;;;;16.40;99.90;;;;;;5076338;28;19966;-88
2022/10/12 01:14:31;;;;;;;;;;;16.40;99.90;;;;;;5080424;28;19917;-88
2022/10/12 01:17:23;;;;;;;;;;;16.30;99.90;;;;;;5069701;28;19916;-87
2022/10/12 01:20:09;;;;;;;;;;;16.30;99.90;;;;;;5080446;28;20646;-84
2022/10/12 01:22:38;;;;;;;;;;;16.30;99.90;;;;;;5083567;28;19916;-86
2022/10/12 01:25:12;;;;;;;;;;;16.30;99.90;;;;;;5084585;28;19916;-86
2022/10/12 01:27:44;;;;;;;;;;;16.20;99.90;;;;;;5084663;28;19967;-85
2022/10/12 01:30:09;;;;;;;;;;;16.20;99.90;;;;;;5080826;28;19998;-83
2022/10/12 01:32:35;;;;;;;;;;;16.20;99.90;;;;;;5074475;28;20061;-85
2022/10/12 01:35:05;;;;;;;;;;;16.20;99.90;;;;;;5075672;28;19916;-84
2022/10/12 01:43:44;;;;;;;;;;;16.10;99.90;;;;;;5059974;28;19923;-88
2022/10/12 01:46:23;;;;;;;;;;;16.20;99.90;;;;;;5076318;28;19916;-87
2022/10/12 01:49:05;;;;;;;;;;;16.10;99.90;;;;;;5082778;28;20801;-87
2022/10/12 01:51:39;;;;;;;;;;;16.10;99.90;;;;;;5073611;28;20425;-87
2022/10/12 01:54:05;;;;;;;;;;;16.10;99.90;;;;;;5083094;28;20374;-86
2022/10/12 01:56:43;;;;;;;;;;;16.10;99.90;;;;;;5074032;28;19989;-88
2022/10/12 01:59:24;;;;;;;;;;;16.00;99.90;;;;;;5081117;28;20438;-88
2022/10/12 02:02:01;;;;;;;;;;;16.00;99.90;;;;;;5080880;28;19923;-88
2022/10/12 02:04:32;;;;;;;;;;;15.90;99.90;;;;;;5076794;28;19948;-87
2022/10/12 02:06:59;;;;;;;;;;;15.90;99.90;;;;;;5077576;28;19917;-88
2022/10/12 02:09:27;;;;;;;;;;;15.90;99.90;;;;;;5074960;28;19924;-88
2022/10/12 02:11:56;;;;;;;;;;;15.90;99.90;;;;;;5070400;28;19916;-87
2022/10/12 02:14:26;;;;;;;;;;;15.90;99.90;;;;;;5069613;28;19930;-87
2022/10/12 02:16:54;;;;;;;;;;;15.90;99.90;;;;;;5084438;28;19916;-88
2022/10/12 02:19:23;;;;;;;;;;;15.80;99.90;;;;;;5077664;28;20378;-88
2022/10/12 02:21:49;;;;;;;;;;;15.80;99.90;;;;;;5076127;28;19920;-87
2022/10/12 02:24:17;;;;;;;;;;;15.80;99.90;;;;;;5077344;28;19916;-88
2022/10/12 02:26:44;;;;;;;;;;;15.80;99.90;;;;;;5068778;28;19916;-87
2022/10/12 02:29:11;;;;;;;;;;;15.70;99.90;;;;;;5078020;28;19970;-87
2022/10/12 02:31:41;;;;;;;;;;;15.90;99.90;;;;;;5077991;28;19916;-87
2022/10/12 02:34:13;;;;;;;;;;;15.90;99.90;;;;;;5078444;28;19995;-87
2022/10/12 02:36:48;;;;;;;;;;;15.80;99.90;;;;;;5077231;28;19916;-86
2022/10/12 02:39:18;;;;;;;;;;;15.80;99.90;;;;;;5078443;28;19930;-87
2022/10/12 02:41:46;;;;;;;;;;;15.80;99.90;;;;;;5085467;28;20438;-86
2022/10/12 02:44:16;;;;;;;;;;;15.90;99.90;;;;;;5077422;28;20634;-88
2022/10/12 02:46:54;;;;;;;;;;;;;;;;;;;;;
2022/10/12 02:49:21;;;;;;;;;;;15.90;99.90;;;;;;5080985;28;20397;-84
2022/10/12 02:51:48;;;;;;;;;;;16.00;99.90;;;;;;5072755;28;19920;-83
2022/10/12 02:54:13;;;;;;;;;;;16.00;99.90;;;;;;5078205;28;19923;-83
2022/10/12 02:56:46;;;;;;;;;;;16.00;99.90;;;;;;5073175;28;19917;-82
2022/10/12 02:59:12;;;;;;;;;;;16.00;99.90;;;;;;5078981;28;19915;-83
2022/10/12 03:01:38;;;;;;;;;;;16.00;99.90;;;;;;5079224;28;19974;-85
2022/10/12 03:04:04;;;;;;;;;;;15.90;99.90;;;;;;5079883;28;19920;-84
2022/10/12 03:06:29;;;;;;;;;;;15.90;99.90;;;;;;5074088;28;19924;-84
2022/10/12 03:08:56;;;;;;;;;;;15.90;99.90;;;;;;5078447;28;19924;-85
2022/10/12 03:11:22;;;;;;;;;;;15.90;99.90;;;;;;5080178;28;19916;-86
2022/10/12 03:13:50;;;;;;;;;;;15.80;99.90;;;;;;5079479;28;19989;-86
2022/10/12 03:16:16;;;;;;;;;;;15.70;99.90;;;;;;5078321;28;19917;-87
2022/10/12 03:18:41;;;;;;;;;;;15.70;99.90;;;;;;5076435;28;19912;-87
2022/10/12 03:21:07;;;;;;;;;;;15.80;99.90;;;;;;5076023;28;19923;-86
2022/10/12 03:23:33;;;;;;;;;;;15.80;99.90;;;;;;5073336;28;20590;-86
2022/10/12 03:25:58;;;;;;;;;;;15.70;99.90;;;;;;5077527;28;19955;-86
2022/10/12 03:28:24;;;;;;;;;;;15.60;99.90;;;;;;5071825;28;20588;-84
2022/10/12 03:30:50;;;;;;;;;;;15.50;99.90;;;;;;5078891;28;19970;-85
2022/10/12 03:33:15;;;;;;;;;;;15.50;99.90;;;;;;5075453;28;19917;-86
2022/10/12 03:35:44;;;;;;;;;;;15.50;99.90;;;;;;5077192;28;19908;-83
2022/10/12 03:38:10;;;;;;;;;;;15.60;99.90;;;;;;5081462;28;19938;-84
2022/10/12 03:40:36;;;;;;;;;;;15.60;99.90;;;;;;5074467;28;19916;-84
2022/10/12 03:43:02;;;;;;;;;;;15.70;99.90;;;;;;5080595;28;20726;-83
2022/10/12 03:45:28;;;;;;;;;;;15.70;99.90;;;;;;5081392;28;19916;-84
2022/10/12 03:47:53;;;;;;;;;;;15.70;99.90;;;;;;5086777;28;19916;-84
2022/10/12 03:50:19;;;;;;;;;;;15.60;99.90;;;;;;5079866;28;19924;-85
2022/10/12 03:52:44;;;;;;;;;;;15.50;99.90;;;;;;5084173;28;20259;-85
2022/10/12 03:55:10;;;;;;;;;;;15.60;99.90;;;;;;5084596;28;19920;-86
2022/10/12 03:57:35;;;;;;;;;;;15.60;99.90;;;;;;5080808;28;20036;-85
2022/10/12 04:00:01;;;;;;;;;;;15.50;99.90;;;;;;5085464;28;19919;-86
2022/10/12 04:02:27;;;;;;;;;;;15.50;99.90;;;;;;5086450;28;20705;-86
2022/10/12 04:04:53;;;;;;;;;;;15.50;99.90;;;;;;5070422;28;19921;-85
2022/10/12 04:07:18;;;;;;;;;;;15.50;99.90;;;;;;5078836;28;20735;-84
2022/10/12 04:09:44;;;;;;;;;;;15.50;99.90;;;;;;5070069;28;19924;-84
2022/10/12 04:12:09;;;;;;;;;;;15.50;99.90;;;;;;5073466;28;20000;-85
2022/10/12 04:14:35;;;;;;;;;;;15.50;99.90;;;;;;5073062;28;19917;-86
2022/10/12 04:17:02;;;;;;;;;;;15.40;99.90;;;;;;5079565;28;19916;-86
2022/10/12 04:19:28;;;;;;;;;;;15.40;99.90;;;;;;5079486;28;19916;-87
2022/10/12 04:21:56;;;;;;;;;;;15.40;99.90;;;;;;5079705;28;20331;-88
2022/10/12 04:24:22;;;;;;;;;;;15.40;99.90;;;;;;5084402;28;20004;-87
2022/10/12 04:26:47;;;;;;;;;;;15.40;99.90;;;;;;5076912;28;19970;-85
2022/10/12 04:29:14;;;;;;;;;;;15.50;99.90;;;;;;5079523;28;20279;-85
2022/10/12 04:31:40;;;;;;;;;;;15.50;99.90;;;;;;5080533;28;19921;-86
2022/10/12 04:34:07;;;;;;;;;;;15.50;99.90;;;;;;5070265;28;19972;-86
2022/10/12 04:36:33;;;;;;;;;;;15.50;99.90;;;;;;5070552;28;19917;-86
2022/10/12 04:39:01;;;;;;;;;;;15.50;99.90;;;;;;5085782;28;19927;-87
2022/10/12 04:41:27;;;;;;;;;;;15.40;99.90;;;;;;5081534;28;19923;-86
2022/10/12 04:44:38;;;;;;;;;;;15.40;99.90;;;;;;5077221;28;19920;-90
2022/10/12 04:46:38;;;;;;;;;;;15.30;99.90;;;;;;5066749;28;19916;-86
2022/10/12 04:49:04;;;;;;;;;;;15.40;99.90;;;;;;5077814;28;19920;-87
2022/10/12 04:51:29;;;;;;;;;;;15.40;99.90;;;;;;5069806;28;19923;-89
2022/10/12 04:53:55;;;;;;;;;;;15.30;99.90;;;;;;5071355;28;19917;-88
2022/10/12 04:56:21;;;;;;;;;;;15.30;99.90;;;;;;5070190;28;19920;-90
2022/10/12 04:58:46;;;;;;;;;;;15.40;99.90;;;;;;5074088;28;19916;-90
2022/10/12 05:01:12;;;;;;;;;;;15.30;99.90;;;;;;5078066;28;19982;-89
2022/10/12 05:03:37;;;;;;;;;;;15.40;99.90;;;;;;5075644;28;19926;-88
2022/10/12 05:06:03;;;;;;;;;;;15.30;99.90;;;;;;5077410;28;20034;-90
2022/10/12 05:08:29;;;;;;;;;;;15.40;99.90;;;;;;5073854;28;19924;-87
2022/10/12 05:10:57;;;;;;;;;;;15.30;99.90;;;;;;5070183;28;19923;-87
2022/10/12 05:13:22;;;;;;;;;;;15.30;99.90;;;;;;5076144;28;19949;-86
2022/10/12 05:15:48;;;;;;;;;;;15.30;99.90;;;;;;5080836;28;19912;-85
2022/10/12 05:18:13;;;;;;;;;;;15.30;99.90;;;;;;5074689;28;20015;-86
2022/10/12 05:20:39;;;;;;;;;;;15.30;99.90;;;;;;5072540;28;19917;-82
2022/10/12 05:23:04;;;;;;;;;;;15.30;99.90;;;;;;5074131;28;19969;-83
2022/10/12 05:25:30;;;;;;;;;;;15.30;99.90;;;;;;5071216;28;19956;-84
2022/10/12 05:27:56;;;;;;;;;;;15.30;99.90;;;;;;5072854;28;20004;-83
2022/10/12 05:30:21;;;;;;;;;;;15.30;99.90;;;;;;5077475;28;19916;-84
2022/10/12 05:32:47;;;;;;;;;;;15.40;99.90;;;;;;5076234;28;20358;-85
2022/10/12 05:35:13;;;;;;;;;;;15.40;99.90;;;;;;5076174;28;19966;-80
2022/10/12 05:37:38;;;;;;;;;;;15.40;99.90;;;;;;5071784;28;19954;-81
2022/10/12 05:40:04;;;;;;;;;;;15.40;99.90;;;;;;5084900;28;19916;-82
2022/10/12 05:42:30;;;;;;;;;;;15.40;99.90;;;;;;5077965;28;19962;-83
2022/10/12 05:44:55;;;;;;;;;;;15.40;99.90;;;;;;5087780;28;19912;-83
2022/10/12 05:47:21;;;;;;;;;;;15.50;99.90;;;;;;5072459;28;19916;-84
2022/10/12 05:49:47;;;;;;;;;;;15.50;99.90;;;;;;5084929;28;19912;-84
2022/10/12 05:52:12;;;;;;;;;;;15.50;99.90;;;;;;5083516;28;20502;-84
2022/10/12 05:54:38;;;;;;;;;;;15.50;99.90;;;;;;5083420;28;19920;-86
2022/10/12 05:57:03;;;;;;;;;;;15.40;99.90;;;;;;5068203;28;20003;-86
2022/10/12 05:59:29;;;;;;;;;;;15.40;99.90;;;;;;5078372;28;19940;-84
2022/10/12 06:01:54;;;;;;;;;;;15.40;99.90;;;;;;5065430;28;19919;-84
2022/10/12 06:04:20;;;;;;;;;;;15.40;99.90;;;;;;5070137;28;19920;-85
2022/10/12 06:06:45;;;;;;;;;;;15.30;99.90;;;;;;5081303;28;20379;-84
2022/10/12 06:09:11;;;;;;;;;;;15.30;99.90;;;;;;5071464;28;20027;-83
2022/10/12 06:11:37;;;;;;;;;;;15.30;99.90;;;;;;5086937;28;19920;-83
2022/10/12 06:14:03;;;;;;;;;;;15.20;99.90;;;;;;5070511;28;19912;-82
2022/10/12 06:16:28;;;;;;;;;;;15.10;99.90;;;;;;5066998;28;19970;-84
2022/10/12 06:18:54;;;;;;;;;;;15.10;99.90;;;;;;5085362;28;19912;-84
2022/10/12 06:21:19;;;;;;;;;;;15.20;99.90;;;;;;5074269;28;19916;-85
2022/10/12 06:23:45;;;;;;;;;;;15.10;99.90;;;;;;5081784;28;19940;-84
2022/10/12 06:26:10;;;;;;;;;;;15.20;99.90;;;;;;5068729;28;19916;-83
2022/10/12 06:28:36;;;;;;;;;;;15.30;99.90;;;;;;5087629;28;19916;-84
2022/10/12 06:31:02;;;;;;;;;;;15.30;99.90;;;;;;5073218;28;20374;-82
2022/10/12 06:33:27;;;;;;;;;;;15.30;99.90;;;;;;5072106;28;20556;-84
2022/10/12 06:35:54;;;;;;;;;;;15.30;99.90;;;;;;5073842;28;19983;-83
2022/10/12 06:38:20;;;;;;;;;;;15.30;99.90;;;;;;5066624;28;19919;-84
2022/10/12 06:40:45;;;;;;;;;;;15.30;99.90;;;;;;5077699;28;20034;-83
2022/10/12 06:43:11;;;;;;;;;;;15.30;99.90;;;;;;5076837;28;20343;-88
2022/10/12 06:45:37;;;;;;;;;;;15.30;99.90;;;;;;5077424;28;19920;-84
2022/10/12 06:48:03;;;;;;;;;;;15.30;99.90;;;;;;5074981;28;19949;-84
2022/10/12 06:50:28;;;;;;;;;;;15.40;99.90;;;;;;5080472;28;19984;-84
2022/10/12 06:52:54;;;;;;;;;;;15.30;99.90;;;;;;5069828;28;20273;-84
2022/10/12 06:55:19;;;;;;;;;;;15.30;99.90;;;;;;5068110;28;20958;-84
2022/10/12 06:57:45;;;;;;;;;;;15.30;99.90;;;;;;5067819;28;19919;-84
2022/10/12 07:00:12;;;;;;;;;;;15.30;99.90;;;;;;5071269;28;20209;-84
2022/10/12 07:02:38;;;;;;;;;;;15.30;99.90;;;;;;5067417;28;19922;-83
2022/10/12 07:05:04;;;;;;;;;;;15.40;99.90;;;;;;5069034;28;20034;-84
2022/10/12 07:07:30;;;;;;;;;;;15.40;99.90;;;;;;5068157;28;19919;-84
2022/10/12 07:09:56;;;;;;;;;;;15.40;99.90;;;;;;5073743;28;20006;-83
2022/10/12 07:12:22;;;;;;;;;;;15.50;99.90;;;;;;5085080;28;20046;-84
2022/10/12 07:14:47;;;;;;;;;;;15.40;99.90;;;;;;5073560;28;20007;-83
2022/10/12 07:17:13;;;;;;;;;;;15.40;99.90;;;;;;5083676;28;20034;-83
2022/10/12 07:19:38;;;;;;;;;;;15.50;99.90;;;;;;5074019;28;19913;-84
2022/10/12 07:22:04;;;;;;;;;;;15.60;99.90;;;;;;5071201;28;19913;-83
2022/10/12 07:24:35;;;;;;;;;;;15.50;99.90;;;;;;5070971;28;19920;-83
2022/10/12 07:27:04;;;;;;;;;;;15.60;99.90;;;;;;5080307;28;20000;-84
2022/10/12 07:29:30;;;;;;;;;;;15.70;99.90;;;;;;5072512;28;19927;-83
2022/10/12 07:31:57;;;;;;;;;;;15.80;99.90;;;;;;5072711;28;19912;-84
2022/10/12 07:34:23;;;;;;;;;;;15.90;99.90;;;;;;5075874;28;19912;-83
2022/10/12 07:36:49;;;;;;;;;;;15.80;99.90;;;;;;5077703;28;20290;-84
2022/10/12 07:39:14;;;;;;;;;;;15.90;99.90;;;;;;5070829;28;19926;-83
2022/10/12 07:41:40;;;;;;;;;;;15.90;99.90;;;;;;5069815;28;20383;-83
2022/10/12 07:44:05;;;;;;;;;;;15.80;99.90;;;;;;5075401;28;19912;-84
2022/10/12 07:46:31;;;;;;;;;;;15.90;99.90;;;;;;5089288;28;19919;-83
2022/10/12 07:48:57;;;;;;;;;;;15.90;99.90;;;;;;5084648;28;20011;-83
2022/10/12 07:51:22;;;;;;;;;;;16.00;99.90;;;;;;5080107;28;19944;-83
2022/10/12 07:53:49;;;;;;;;;;;15.90;99.90;;;;;;5070554;28;19919;-84
2022/10/12 07:56:15;;;;;;;;;;;16.10;99.90;;;;;;5070631;28;19955;-83
2022/10/12 07:58:41;;;;;;;;;;;16.20;99.90;;;;;;5085823;28;19924;-83
2022/10/12 08:01:08;;;;;;;;;;;16.30;99.90;;;;;;5083239;28;19908;-83
2022/10/12 08:03:34;;;;;;;;;;;16.60;99.90;;;;;;5079969;28;20362;-83
2022/10/12 08:06:06;;;;;;;;;;;16.70;99.90;;;;;;5087194;28;20699;-83
2022/10/12 08:08:31;;;;;;;;;;;16.90;99.90;;;;;;5077227;28;19927;-84
2022/10/12 08:10:59;;;;;;;;;;;17.10;99.90;;;;;;5075297;28;19912;-83
2022/10/12 08:13:25;;;;;;;;;;;17.30;99.90;;;;;;5074634;28;20763;-82
2022/10/12 08:15:51;;;;;;;;;;;17.60;99.90;;;;;;5069815;28;19978;-83
2022/10/12 08:18:16;;;;;;;;;;;17.70;99.90;;;;;;5074898;28;20432;-83
2022/10/12 08:20:42;;;;;;;;;;;18.50;99.90;;;;;;5083052;28;19919;-83
2022/10/12 08:23:07;;;;;;;;;;;19.10;99.90;;;;;;5076708;28;20302;-82
2022/10/12 08:25:34;;;;;;;;;;;18.90;99.90;;;;;;5074998;28;20400;-83
2022/10/12 08:27:59;;;;;;;;;;;18.80;99.90;;;;;;5081885;28;19916;-83
2022/10/12 08:30:25;;;;;;;;;;;18.90;99.90;;;;;;5075867;28;19913;-83
2022/10/12 08:32:52;;;;;;;;;;;18.70;99.90;;;;;;5077254;28;19916;-83
2022/10/12 08:35:17;;;;;;;;;;;18.40;99.90;;;;;;5074090;28;20525;-83
2022/10/12 08:37:43;;;;;;;;;;;18.40;99.90;;;;;;5070039;28;19913;-83
2022/10/12 08:40:13;;;;;;;;;;;18.60;99.90;;;;;;5070126;28;19912;-83
2022/10/12 08:42:45;;;;;;;;;;;19.10;99.90;;;;;;5076521;28;19921;-83
2022/10/12 08:45:14;;;;;;;;;;;19.20;99.90;;;;;;5082959;28;19934;-83
2022/10/12 08:47:41;;;;;;;;;;;19.20;99.90;;;;;;5070375;28;19908;-83
2022/10/12 08:50:13;;;;;;;;;;;18.90;99.90;;;;;;5084852;28;20260;-83
2022/10/12 08:52:47;;;;;;;;;;;19.20;99.90;;;;;;5069504;28;19927;-83
2022/10/12 08:55:22;;;;;;;;;;;18.80;99.90;;;;;;5070848;28;19912;-83
2022/10/12 08:57:47;;;;;;;;;;;19.60;99.90;;;;;;5080472;28;20361;-83
2022/10/12 09:00:14;;;;;;;;;;;19.70;99.90;;;;;;5084326;28;19913;-83
2022/10/12 09:02:46;;;;;;;;;;;19.10;99.90;;;;;;5081515;28;19948;-83
2022/10/12 09:05:16;;;;;;;;;;;18.80;99.90;;;;;;5072497;28;19924;-82
2022/10/12 09:07:41;;;;;;;;;;;18.80;99.90;;;;;;5070620;28;20003;-83
2022/10/12 09:10:08;;;;;;;;;;;18.60;99.90;;;;;;5075415;28;20007;-83
2022/10/12 09:12:34;;;;;;;;;;;18.60;99.90;;;;;;5081108;28;20391;-83
2022/10/12 09:15:02;;;;;;;;;;;18.70;99.90;;;;;;5080749;28;20206;-83
2022/10/12 09:17:28;;;;;;;;;;;18.70;99.90;;;;;;5075906;28;19912;-83
2022/10/12 09:20:12;;;;;;;;;;;18.90;99.90;;;;;;5080399;28;19914;-83
2022/10/12 09:22:38;;;;;;;;;;;18.80;99.90;;;;;;5082510;28;19931;-83
2022/10/12 09:25:05;;;;;;;;;;;18.70;99.90;;;;;;5068442;28;20450;-83
2022/10/12 09:27:30;;;;;;;;;;;18.80;99.90;;;;;;5077144;28;19951;-83
2022/10/12 09:30:01;;;;;;;;;;;18.80;99.90;;;;;;5079671;28;19947;-83
2022/10/12 09:32:42;;;;;;;;;;;19.10;99.90;;;;;;5080309;28;20302;-83
2022/10/12 09:35:10;;;;;;;;;;;19.40;99.90;;;;;;5073884;28;19912;-83
2022/10/12 09:37:36;;;;;;;;;;;19.40;99.90;;;;;;5075227;28;19973;-83
2022/10/12 09:40:02;;;;;;;;;;;19.30;99.90;;;;;;5074406;28;19916;-83
2022/10/12 09:42:28;;;;;;;;;;;19.40;99.90;;;;;;5081065;28;20014;-83
2022/10/12 09:45:23;;;;;;;;;;;19.70;99.90;;;;;;5076761;28;20011;-83
2022/10/12 09:48:07;;;;;;;;;;;19.90;99.90;;;;;;5071354;28;19916;-83
2022/10/12 09:50:44;;;;;;;;;;;19.40;99.90;;;;;;5082966;28;19917;-83
2022/10/12 09:53:14;;;;;;;;;;;19.60;99.90;;;;;;5069326;28;20122;-82
2022/10/12 09:55:39;;;;;;;;;;;19.90;99.90;;;;;;5069397;28;19916;-83
2022/10/12 09:58:12;;;;;;;;;;;20.30;99.90;;;;;;5081298;28;19927;-83
2022/10/12 10:00:39;;;;;;;;;;;20.30;99.90;;;;;;5079602;28;20270;-83
2022/10/12 10:03:04;;;;;;;;;;;20.50;99.90;;;;;;5074615;28;19999;-83
2022/10/12 10:05:31;;;;;;;;;;;21.00;99.90;;;;;;5078695;28;19984;-83
2022/10/12 10:08:15;;;;;;;;;;;20.60;99.90;;;;;;5077165;28;19969;-83
2022/10/12 10:10:50;;;;;;;;;;;20.70;99.90;;;;;;5072300;28;20424;-83
2022/10/12 10:13:16;;;;;;;;;;;20.50;99.90;;;;;;5080979;28;19913;-83
2022/10/12 10:15:43;;;;;;;;;;;21.00;99.90;;;;;;5081374;28;19924;-83
2022/10/12 10:18:38;;;;;;;;;;;20.60;99.60;;;;;;5068173;28;19919;-83
2022/10/12 10:21:06;;;;;;;;;;;20.50;99.90;;;;;;5069593;28;19922;-83
2022/10/12 10:23:37;;;;;;;;;;;20.80;99.90;;;;;;5080493;28;19947;-83
2022/10/12 10:26:08;;;;;;;;;;;20.90;99.90;;;;;;5074683;28;19974;-83
2022/10/12 10:28:37;;;;;;;;;;;20.90;99.90;;;;;;5073028;28;19916;-83
2022/10/12 10:31:04;;;;;;;;;;;20.90;99.90;;;;;;5074653;28;20450;-83
2022/10/12 10:33:31;;;;;;;;;;;20.50;99.80;;;;;;5072983;28;20394;-83
2022/10/12 10:35:59;;;;;;;;;;;20.50;99.60;;;;;;5080793;28;19912;-83
2022/10/12 10:38:26;;;;;;;;;;;20.80;99.90;;;;;;5075292;28;19913;-83
2022/10/12 10:40:53;;;;;;;;;;;20.90;99.00;;;;;;5084595;28;19981;-84
2022/10/12 10:43:26;;;;;;;;;;;20.80;99.90;;;;;;5076503;28;19920;-83
2022/10/12 10:45:54;;;;;;;;;;;20.70;99.80;;;;;;5068068;28;19956;-83
2022/10/12 10:48:21;;;;;;;;;;;20.50;99.90;;;;;;5071661;28;19920;-83
2022/10/12 10:50:51;;;;;;;;;;;20.90;99.90;;;;;;5076792;28;19939;-83
2022/10/12 10:53:21;;;;;;;;;;;20.90;99.90;;;;;;5085058;28;19922;-83
2022/10/12 10:56:06;;;;;;;;;;;20.90;99.90;;;;;;5082587;28;19919;-83
2022/10/12 10:58:37;;;;;;;;;;;21.10;99.90;;;;;;5079702;28;19962;-83
2022/10/12 11:01:23;;;;;;;;;;;20.90;99.90;;;;;;5079802;28;19912;-82
2022/10/12 11:04:10;;;;;;;;;;;20.60;99.60;;;;;;5071513;28;20703;-83
2022/10/12 11:06:40;;;;;;;;;;;20.50;99.90;;;;;;5082886;28;19920;-83
2022/10/12 11:09:17;;;;;;;;;;;20.50;99.90;;;;;;5082542;28;19962;-83
2022/10/12 11:11:44;;;;;;;;;;;20.80;99.70;;;;;;5074039;28;19920;-83
2022/10/12 11:14:18;;;;;;;;;;;20.90;99.40;;;;;;5083508;28;19916;-83
2022/10/12 11:17:02;;;;;;;;;;;21.00;99.20;;;;;;5078727;28;20411;-83
2022/10/12 11:19:42;;;;;;;;;;;21.00;98.40;;;;;;5077956;28;19962;-82
2022/10/12 11:22:07;;;;;;;;;;;21.10;99.90;;;;;;5076365;28;20017;-83
2022/10/12 11:24:46;;;;;;;;;;;21.20;98.50;;;;;;5083879;28;19971;-82
2022/10/12 11:27:22;;;;;;;;;;;21.10;99.00;;;;;;5077028;28;19989;-82
2022/10/12 11:29:48;;;;;;;;;;;21.00;99.90;;;;;;5080768;28;19916;-82
2022/10/12 11:32:23;;;;;;;;;;;21.20;99.60;;;;;;5084305;28;19919;-83
2022/10/12 11:34:53;;;;;;;;;;;21.10;99.90;;;;;;5079932;28;19916;-83
2022/10/12 11:37:20;;;;;;;;;;;21.20;99.90;;;;;;5086954;28;19918;-83
2022/10/12 11:39:48;;;;;;;;;;;21.30;99.90;;;;;;5080142;28;19923;-83
2022/10/12 11:42:17;;;;;;;;;;;21.30;99.90;;;;;;5082423;28;19913;-83
2022/10/12 11:44:44;;;;;;;;;;;21.20;99.90;;;;;;5080713;28;20695;-83
2022/10/12 11:47:28;;;;;;;;;;;21.20;99.90;;;;;;5074421;28;19912;-83
2022/10/12 11:50:12;;;;;;;;;;;21.30;99.90;;;;;;5090550;28;19974;-83
2022/10/12 11:52:43;;;;;;;;;;;21.50;99.90;;;;;;5082067;28;19916;-83
2022/10/12 11:55:08;;;;;;;;;;;21.70;99.90;;;;;;5074673;28;19912;-83
2022/10/12 11:57:36;;;;;;;;;;;21.60;99.90;;;;;;5090215;28;20498;-84
2022/10/12 12:00:05;;;;;;;;;;;21.60;99.90;;;;;;5074219;28;19999;-83
2022/10/12 12:02:37;;;;;;;;;;;21.40;99.90;;;;;;5080618;28;20307;-82
2022/10/12 12:05:04;;;;;;;;;;;21.10;97.90;;;;;;5083255;28;19920;-83
2022/10/12 12:07:35;;;;;;;;;;;21.00;97.00;;;;;;5080295;28;20397;-83
2022/10/12 12:10:21;;;;;;;;;;;21.00;98.50;;;;;;5070023;28;20023;-83
2022/10/12 12:13:06;;;;;;;;;;;21.10;96.80;;;;;;5083089;28;20543;-82
2022/10/12 12:15:32;;;;;;;;;;;21.00;97.10;;;;;;5073718;28;20000;-83
2022/10/12 12:18:15;;;;;;;;;;;21.10;97.90;;;;;;5074717;28;19916;-83
2022/10/12 12:20:43;;;;;;;;;;;21.00;96.00;;;;;;5082968;28;19912;-82
2022/10/12 12:23:25;;;;;;;;;;;21.10;97.70;;;;;;5068956;28;19919;-83
2022/10/12 12:26:09;;;;;;;;;;;21.20;97.90;;;;;;5082138;28;19920;-83
2022/10/12 12:28:35;;;;;;;;;;;21.00;96.40;;;;;;5076654;28;19947;-83
2022/10/12 12:31:03;;;;;;;;;;;20.90;96.60;;;;;;5081317;28;20781;-82
2022/10/12 12:33:34;;;;;;;;;;;21.10;97.40;;;;;;5087533;28;19920;-83
2022/10/12 12:36:08;;;;;;;;;;;21.30;96.30;;;;;;5068807;28;19915;-83
2022/10/12 12:38:37;;;;;;;;;;;21.30;95.00;;;;;;5074416;28;19958;-83
2022/10/12 12:41:05;;;;;;;;;;;21.30;93.80;;;;;;5076506;28;20839;-82
2022/10/12 12:43:31;;;;;;;;;;;21.20;93.10;;;;;;5081633;28;19959;-83
2022/10/12 12:46:00;;;;;;;;;;;21.10;93.80;;;;;;5073171;28;19944;-83
2022/10/12 12:48:41;;;;;;;;;;;21.20;93.70;;;;;;5072625;28;19962;-82
2022/10/12 12:51:11;;;;;;;;;;;21.20;93.20;;;;;;5072487;28;19912;-82
2022/10/12 12:53:39;;;;;;;;;;;21.20;92.60;;;;;;5078510;28;19918;-82
2022/10/12 12:56:14;;;;;;;;;;;21.30;92.60;;;;;;5072543;28;20449;-83
2022/10/12 12:58:49;;;;;;;;;;;21.30;92.80;;;;;;5075672;28;19999;-83
2022/10/12 13:01:42;;;;;;;;;;;21.40;94.20;;;;;;5072508;28;19924;-83
2022/10/12 13:04:11;;;;;;;;;;;21.30;92.10;;;;;;5070933;28;19916;-83
2022/10/12 13:06:49;;;;;;;;;;;21.30;92.50;;;;;;5073874;28;19916;-82
2022/10/12 13:09:22;;;;;;;;;;;21.40;93.50;;;;;;5071158;28;19982;-83
2022/10/12 13:11:56;;;;;;;;;;;21.40;93.10;;;;;;5066794;28;19956;-82
2022/10/12 13:14:42;;;;;;;;;;;21.40;93.30;;;;;;5071873;28;19920;-83
2022/10/12 13:17:30;;;;;;;;;;;21.60;93.20;;;;;;5077845;28;19912;-82
2022/10/12 13:19:56;;;;;;;;;;;21.50;92.40;;;;;;5064156;28;19928;-82
2022/10/12 13:22:27;;;;;;;;;;;21.40;91.70;;;;;;5068169;28;19916;-82
2022/10/12 13:24:55;;;;;;;;;;;21.40;91.80;;;;;;5076072;28;20374;-81
2022/10/12 13:27:39;;;;;;;;;;;21.60;92.30;;;;;;5072249;28;19931;-83
2022/10/12 13:30:14;;;;;;;;;;;21.70;92.40;;;;;;5068777;28;19938;-82
2022/10/12 13:32:43;;;;;;;;;;;21.60;91.10;;;;;;5071766;28;20689;-82
2022/10/12 13:35:12;;;;;;;;;;;21.60;90.40;;;;;;5078695;28;19913;-83
2022/10/12 13:37:37;;;;;;;;;;;21.90;91.30;;;;;;5067367;28;19924;-82
2022/10/12 13:40:03;;;;;;;;;;;22.00;91.10;;;;;;5071800;28;19916;-83
2022/10/12 13:42:34;;;;;;;;;;;22.30;91.30;;;;;;5072474;28;19923;-82
2022/10/12 13:45:02;;;;;;;;;;;22.50;91.10;;;;;;5066488;28;19908;-82
2022/10/12 13:47:29;;;;;;;;;;;22.70;90.60;;;;;;5086783;28;19916;-81
2022/10/12 13:49:55;;;;;;;;;;;22.70;91.00;;;;;;5075624;28;19923;-81
2022/10/12 13:52:26;;;;;;;;;;;22.60;91.50;;;;;;5077398;28;19912;-80
2022/10/12 13:54:54;;;;;;;;;;;22.50;90.00;;;;;;5068139;28;19924;-81
2022/10/12 13:57:30;;;;;;;;;;;22.40;90.20;;;;;;5068332;28;19917;-81
2022/10/12 14:00:08;;;;;;;;;;;22.40;90.70;;;;;;5087906;28;19912;-82
2022/10/12 14:02:34;;;;;;;;;;;22.30;91.40;;;;;;5076378;28;19919;-82
2022/10/12 14:05:01;;;;;;;;;;;22.10;91.70;;;;;;5081028;28;20371;-82
2022/10/12 14:07:37;;;;;;;;;;;21.90;91.50;;;;;;5074666;28;19916;-82
2022/10/12 14:10:07;;;;;;;;;;;21.80;91.80;;;;;;5071200;28;19931;-81
2022/10/12 14:12:36;;;;;;;;;;;21.70;91.60;;;;;;5070337;28;19991;-82
2022/10/12 14:15:03;;;;;;;;;;;21.60;91.20;;;;;;5066511;28;19913;-83
2022/10/12 14:17:28;;;;;;;;;;;21.40;92.10;;;;;;5081419;28;20011;-82
2022/10/12 14:19:58;;;;;;;;;;;21.30;91.40;;;;;;5066899;28;20109;-82
2022/10/12 14:22:26;;;;;;;;;;;21.20;91.90;;;;;;5067193;28;20668;-82
2022/10/12 14:24:54;;;;;;;;;;;21.00;91.30;;;;;;5074168;28;19916;-82
2022/10/12 14:27:22;;;;;;;;;;;20.90;90.80;;;;;;5079303;28;20006;-82
2022/10/12 14:29:48;;;;;;;;;;;20.80;90.70;;;;;;5068171;28;20458;-81
2022/10/12 14:32:14;;;;;;;;;;;20.70;91.10;;;;;;5083638;28;19951;-82
2022/10/12 14:34:46;;;;;;;;;;;20.60;90.90;;;;;;5073977;28;19958;-82
2022/10/12 14:37:12;;;;;;;;;;;20.60;90.90;;;;;;5065037;28;19917;-82
2022/10/12 14:39:37;;;;;;;;;;;20.50;91.30;;;;;;5069986;28;19920;-82
2022/10/12 14:42:16;;;;;;;;;;;20.50;91.20;;;;;;5078250;28;20363;-82